Terminal Aerodrome Forecast
Issued by NWS Sterling, VA

Home | Current Version | Previous Version | Text Only | Print | Product List | Glossary On
Versions: 1 2 3 4 5 6 7 8 9 10 11 12 13 14 15 16 17 18 19 20 21
164
FTUS41 KLWX 221444 AAA
TAFDCA
TAF AMD
KDCA 221444Z 2215/2312 13004KT P6SM -SHRA OVC008
     FM221700 16004KT P6SM VCSH BKN010
     FM221900 16004KT P6SM BKN020
     FM222100 17005KT P6SM VCTS BKN025CB
     FM222300 17005KT P6SM BKN040
     FM230200 26004KT P6SM BKN045
     FM230500 33004KT P6SM BKN070=

USA.gov is the U.S. government's official web portal to all federal, state and local government web resources and services.